createdAt,value
2023-04-04T00:01:14.157Z,102224.66
2023-04-04T00:03:43.974Z,102224.53
2023-04-04T00:06:13.215Z,102227.13
2023-04-04T00:08:42.600Z,102217.50
2023-04-04T00:11:13.894Z,102222.78
2023-04-04T00:13:43.757Z,102226.22
2023-04-04T00:16:13.587Z,102224.50
2023-04-04T00:18:44.131Z,102217.56
2023-04-04T00:21:13.957Z,102209.53
2023-04-04T00:23:43.061Z,102212.94
2023-04-04T00:26:13.542Z,102209.47
2023-04-04T00:28:43.265Z,102201.53
2023-04-04T00:31:12.483Z,102202.44
2023-04-04T00:33:41.926Z,102200.72
2023-04-04T00:36:11.667Z,102202.44
2023-04-04T00:38:41.186Z,102198.00
2023-04-04T00:41:10.290Z,102198.00
2023-04-04T00:43:41.392Z,102200.72
2023-04-04T00:46:15.122Z,102195.44
2023-04-04T00:48:44.877Z,102195.38
2023-04-04T00:51:14.009Z,102182.16
2023-04-04T00:53:48.035Z,102184.78
2023-04-04T00:56:17.739Z,102183.91
2023-04-04T00:58:48.690Z,102184.69
2023-04-04T01:01:19.387Z,102190.97
2023-04-04T01:03:49.091Z,102177.84
2023-04-04T01:06:18.295Z,102176.13
2023-04-04T01:08:49.705Z,102167.25
2023-04-04T01:11:19.105Z,102161.97
2023-04-04T01:13:50.135Z,102158.34
2023-04-04T01:16:21.627Z,102160.09
2023-04-04T01:18:52.208Z,102152.16
2023-04-04T01:21:22.796Z,102159.25
2023-04-04T01:24:01.298Z,102148.59
2023-04-04T01:26:58.181Z,102149.47
2023-04-04T01:29:27.785Z,102145.91
2023-04-04T01:32:02.038Z,102150.41
2023-04-04T01:34:36.182Z,102143.41
2023-04-04T01:37:12.545Z,102135.38
2023-04-04T01:39:45.998Z,102140.63
2023-04-04T01:42:20.045Z,102136.34
2023-04-04T01:44:57.777Z,102144.06
2023-04-04T01:47:40.244Z,102141.44
2023-04-04T01:50:12.604Z,102140.53
2023-04-04T01:52:42.192Z,102138.69
2023-04-04T01:55:12.594Z,102129.13
2023-04-04T01:57:43.245Z,102131.69
2023-04-04T02:00:15.862Z,102127.31
2023-04-04T02:02:47.317Z,102121.13
2023-04-04T02:05:17.943Z,102122.13
2023-04-04T02:07:48.554Z,102118.53
2023-04-04T02:10:26.769Z,102107.94
2023-04-04T02:12:58.137Z,102112.31
2023-04-04T02:15:27.909Z,102104.41
2023-04-04T02:17:58.866Z,102109.69
2023-04-04T02:20:30.506Z,102097.41
2023-04-04T02:22:59.713Z,102109.78
2023-04-04T02:25:29.087Z,102099.19
2023-04-04T02:27:59.686Z,102103.50
2023-04-04T02:31:20.520Z,102102.59
2023-04-04T02:33:50.120Z,102098.25
2023-04-04T02:36:21.553Z,102105.31
2023-04-04T02:38:53.342Z,102092.22
2023-04-04T02:41:27.818Z,102090.50
2023-04-04T02:44:01.244Z,102092.25
2023-04-04T02:46:30.741Z,102092.22
2023-04-04T02:49:05.003Z,102091.41
2023-04-04T02:51:36.847Z,102093.06
2023-04-04T02:54:06.404Z,102099.16
2023-04-04T02:56:42.430Z,102088.50
2023-04-04T02:59:13.037Z,102083.13
2023-04-04T03:01:42.909Z,102092.78
2023-04-04T03:04:12.785Z,102084.97
2023-04-04T03:06:44.227Z,102087.53
2023-04-04T03:09:13.902Z,102084.09
2023-04-04T03:11:43.236Z,102077.06
2023-04-04T03:14:13.915Z,102076.22
2023-04-04T03:16:43.754Z,102074.53
2023-04-04T03:19:13.044Z,102077.16
2023-04-04T03:21:42.517Z,102073.63
2023-04-04T03:24:12.660Z,102075.44
2023-04-04T03:26:42.437Z,102077.06
2023-04-04T03:29:15.348Z,102068.16
2023-04-04T03:31:46.626Z,102064.72
2023-04-04T03:34:16.091Z,102059.41
2023-04-04T03:36:46.736Z,102056.81
2023-04-04T03:39:16.106Z,102065.69
2023-04-04T03:41:45.749Z,102055.91
2023-04-04T03:44:16.264Z,102055.00
2023-04-04T03:46:45.994Z,102052.34
2023-04-04T03:49:16.160Z,102051.44
2023-04-04T03:51:46.029Z,102057.72
2023-04-04T03:54:15.343Z,102052.25
2023-04-04T03:56:44.918Z,102053.16
2023-04-04T03:59:15.599Z,102056.59
2023-04-04T04:01:45.634Z,102049.53
2023-04-04T04:04:15.007Z,102044.22
2023-04-04T04:06:45.042Z,102044.25
2023-04-04T04:09:16.521Z,102045.03
2023-04-04T04:11:46.016Z,102046.81
2023-04-04T04:14:16.628Z,102044.97
2023-04-04T04:16:46.302Z,102044.13
2023-04-04T04:19:19.630Z,102050.31
2023-04-04T04:21:49.875Z,102053.84
2023-04-04T04:24:19.671Z,102050.31
2023-04-04T04:26:49.026Z,102054.66
2023-04-04T04:29:20.290Z,102053.88
2023-04-04T04:31:50.115Z,102050.38
2023-04-04T04:34:19.327Z,102054.75
2023-04-04T04:36:50.100Z,102046.88
2023-04-04T04:39:24.948Z,102049.50
2023-04-04T04:42:11.987Z,102062.59
2023-04-04T04:44:50.961Z,102057.44
2023-04-04T04:47:20.787Z,102049.63
2023-04-04T04:49:50.818Z,102052.16
2023-04-04T04:52:25.490Z,102056.50
2023-04-04T04:54:56.075Z,102051.25
2023-04-04T04:57:27.463Z,102059.97
2023-04-04T04:59:59.014Z,102049.44
2023-04-04T05:02:29.969Z,102048.78
2023-04-04T05:04:59.805Z,102052.31
2023-04-04T05:07:30.534Z,102053.22
2023-04-04T05:09:59.697Z,102070.88
2023-04-04T05:12:29.446Z,102056.00
2023-04-04T05:15:00.187Z,102048.00
2023-04-04T05:17:29.854Z,102059.41
2023-04-04T05:20:08.233Z,102065.63
2023-04-04T05:22:43.442Z,102063.84
2023-04-04T05:25:13.731Z,102063.06
2023-04-04T05:27:49.609Z,102069.25
2023-04-04T05:30:23.523Z,102070.06
2023-04-04T05:33:23.366Z,102063.88
2023-04-04T05:36:05.630Z,102065.59
2023-04-04T05:38:39.225Z,102070.00
2023-04-04T05:41:09.751Z,102072.78
2023-04-04T05:43:39.653Z,102063.00
2023-04-04T05:46:15.024Z,102071.88
2023-04-04T05:48:50.260Z,102068.41
2023-04-04T05:51:19.742Z,102068.53
2023-04-04T05:53:59.195Z,102067.53
2023-04-04T05:56:34.055Z,102066.63
2023-04-04T05:59:06.060Z,102065.25
2023-04-04T06:01:42.120Z,102070.53
2023-04-04T06:04:15.644Z,102060.06
2023-04-04T06:06:46.702Z,102051.25
2023-04-04T06:09:16.222Z,102059.34
2023-04-04T06:11:45.546Z,102061.34
2023-04-04T06:14:15.808Z,102055.31
2023-04-04T06:16:48.783Z,102048.28
2023-04-04T06:19:21.454Z,102053.66
2023-04-04T06:21:51.560Z,102046.66
2023-04-04T06:24:21.038Z,102043.25
2023-04-04T06:26:52.109Z,102043.34
2023-04-04T06:29:26.194Z,102046.94
2023-04-04T06:31:59.562Z,102034.78
2023-04-04T06:34:38.525Z,102027.91
2023-04-04T06:37:07.812Z,102027.16
2023-04-04T06:39:43.772Z,102029.97
2023-04-04T06:42:22.174Z,102025.66
2023-04-04T06:44:53.721Z,102024.84
2023-04-04T06:47:24.343Z,102024.03
2023-04-04T06:49:54.724Z,102041.69
2023-04-04T06:52:24.619Z,102030.25
2023-04-04T06:54:54.361Z,102037.34
2023-04-04T06:57:23.567Z,102030.28
2023-04-04T06:59:52.913Z,102041.66
2023-04-04T07:02:23.705Z,102034.66
2023-04-04T07:04:53.405Z,102035.56
2023-04-04T07:07:22.583Z,102032.84
2023-04-04T07:09:52.027Z,102028.47
2023-04-04T07:12:21.282Z,102020.59
2023-04-04T07:14:50.630Z,102018.84
2023-04-04T07:17:24.782Z,102016.16
2023-04-04T07:19:56.343Z,102025.84
2023-04-04T07:22:25.752Z,102019.75
2023-04-04T07:24:55.312Z,102014.41
2023-04-04T07:27:24.493Z,102024.06
2023-04-04T07:29:54.319Z,102022.22
2023-04-04T07:32:24.609Z,102017.78
2023-04-04T07:34:56.017Z,102023.97
2023-04-04T07:37:26.646Z,102015.19
2023-04-04T07:39:56.215Z,102016.09
2023-04-04T07:42:25.472Z,102016.16
2023-04-04T07:44:55.177Z,102020.47
2023-04-04T07:47:24.416Z,102019.66
2023-04-04T07:49:55.438Z,102008.22
2023-04-04T07:52:25.869Z,102015.38
2023-04-04T07:54:55.441Z,102010.13
2023-04-04T07:57:24.672Z,102008.28
2023-04-04T07:59:54.318Z,102004.78
2023-04-04T08:02:23.444Z,102003.03
2023-04-04T08:04:53.258Z,101990.72
2023-04-04T08:07:24.035Z,101989.94
2023-04-04T08:09:53.601Z,101988.22
2023-04-04T08:12:22.732Z,101982.16
2023-04-04T08:14:52.947Z,101980.47
2023-04-04T08:17:22.098Z,101979.66
2023-04-04T08:19:51.475Z,101968.22
2023-04-04T08:22:22.327Z,101971.78
2023-04-04T08:24:52.310Z,101974.50
2023-04-04T08:27:21.546Z,101966.56
2023-04-04T08:29:50.974Z,101955.16
2023-04-04T08:32:20.270Z,101960.53
2023-04-04T08:34:49.970Z,101950.91
2023-04-04T08:37:19.359Z,101948.28
2023-04-04T08:39:50.353Z,101959.84
2023-04-04T08:42:21.731Z,101969.56
2023-04-04T08:44:55.355Z,101962.56
2023-04-04T08:47:28.388Z,101967.88
2023-04-04T08:50:01.793Z,101968.78
2023-04-04T08:52:35.782Z,101977.66
2023-04-04T08:55:09.997Z,101961.75
2023-04-04T08:57:39.280Z,101959.94
2023-04-04T09:00:10.425Z,101957.31
2023-04-04T09:02:47.720Z,101961.75
2023-04-04T09:05:17.741Z,101955.56
2023-04-04T09:07:47.632Z,101948.53
2023-04-04T09:10:18.808Z,101948.53
2023-04-04T09:12:49.540Z,101952.06
2023-04-04T09:15:19.246Z,101949.44
2023-04-04T09:17:49.034Z,101951.22
2023-04-04T09:20:40.788Z,101949.44
2023-04-04T09:23:12.210Z,101936.19
2023-04-04T09:28:22.330Z,101946.78
2023-04-04T09:30:53.236Z,101931.75
2023-04-04T09:33:25.089Z,101937.06
2023-04-04T09:35:59.265Z,101922.00
2023-04-04T09:38:29.988Z,101931.72
2023-04-04T09:41:01.324Z,101927.31
2023-04-04T09:43:34.378Z,101935.28
2023-04-04T09:46:06.977Z,101937.94
2023-04-04T09:48:37.193Z,101932.63
2023-04-04T09:51:08.315Z,101931.75
2023-04-04T09:53:38.184Z,101928.22
2023-04-04T09:56:10.181Z,101929.06
2023-04-04T09:58:49.332Z,101928.16
2023-04-04T10:01:28.699Z,101911.34
2023-04-04T10:03:59.360Z,101933.44
2023-04-04T10:06:29.232Z,101918.41
2023-04-04T10:08:59.518Z,101924.56
2023-04-04T10:11:34.605Z,101920.13
2023-04-04T10:14:04.825Z,101923.69
2023-04-04T10:16:38.278Z,101909.53
2023-04-04T10:19:08.797Z,101916.59
2023-04-04T10:21:38.542Z,101914.81
2023-04-04T10:24:10.204Z,101918.34
2023-04-04T10:26:41.705Z,101920.13
2023-04-04T10:29:11.252Z,101929.00
2023-04-04T10:31:45.348Z,101925.50
2023-04-04T10:34:21.843Z,101929.91
2023-04-04T10:36:53.283Z,101928.09
2023-04-04T10:39:27.354Z,101918.34
2023-04-04T10:41:59.891Z,101913.91
2023-04-04T10:44:33.825Z,101931.59
2023-04-04T10:47:14.695Z,101929.84
2023-04-04T10:49:46.345Z,101916.53
2023-04-04T10:52:17.776Z,101928.94
2023-04-04T10:54:47.939Z,101921.00
2023-04-04T10:57:19.916Z,101915.63
2023-04-04T10:59:58.959Z,101914.72
2023-04-04T11:02:50.009Z,101910.25
2023-04-04T11:05:24.154Z,101905.81
2023-04-04T11:10:33.858Z,101900.47
2023-04-04T11:13:13.674Z,101904.00
2023-04-04T11:15:47.681Z,101896.88
2023-04-04T11:18:30.722Z,101888.03
2023-04-04T11:21:05.539Z,101890.66
2023-04-04T11:24:17.133Z,101883.56
2023-04-04T11:26:47.257Z,101884.44
2023-04-04T11:29:44.917Z,101880.88
2023-04-04T11:32:31.349Z,101877.31
2023-04-04T11:35:00.943Z,101879.94
2023-04-04T11:37:34.555Z,101885.28
2023-04-04T11:40:12.953Z,101881.72
2023-04-04T11:42:42.891Z,101872.84
2023-04-04T11:45:21.018Z,101863.97
2023-04-04T11:47:51.413Z,101870.13
2023-04-04T11:50:21.902Z,101861.31
2023-04-04T11:52:54.939Z,101864.84
2023-04-04T11:55:26.684Z,101859.56
2023-04-04T11:57:58.254Z,101861.38
2023-04-04T12:00:35.057Z,101855.13
2023-04-04T12:03:06.955Z,101856.88
2023-04-04T12:05:37.073Z,101840.97
2023-04-04T12:08:08.357Z,101844.47
2023-04-04T12:10:38.498Z,101843.63
2023-04-04T12:13:08.391Z,101848.91
2023-04-04T12:15:39.860Z,101842.75
2023-04-04T12:18:09.904Z,101843.66
2023-04-04T12:20:42.972Z,101845.44
2023-04-04T12:23:14.873Z,101848.16
2023-04-04T12:25:45.186Z,101848.19
2023-04-04T12:28:14.956Z,101847.31
2023-04-04T12:30:46.392Z,101850.84
2023-04-04T12:33:15.659Z,101843.75
2023-04-04T12:35:53.860Z,101843.75
2023-04-04T12:38:23.583Z,101843.75
2023-04-04T12:40:53.966Z,101830.38
2023-04-04T12:43:23.192Z,101831.25
2023-04-04T12:45:58.699Z,101829.47
2023-04-04T12:48:30.029Z,101837.50
2023-04-04T12:51:00.881Z,101835.72
2023-04-04T12:53:33.084Z,101832.19
2023-04-04T12:56:05.079Z,101826.88
2023-04-04T12:58:37.470Z,101827.72
2023-04-04T13:01:09.660Z,101826.84
2023-04-04T13:03:39.989Z,101818.88
2023-04-04T13:06:14.535Z,101820.69
2023-04-04T13:08:54.039Z,101826.81
2023-04-04T13:11:24.142Z,101820.59
2023-04-04T13:14:01.392Z,101817.97
2023-04-04T13:16:36.040Z,101818.81
2023-04-04T13:19:06.156Z,101811.75
2023-04-04T13:21:36.497Z,101811.66
2023-04-04T13:24:05.989Z,101809.81
2023-04-04T13:26:35.185Z,101823.09
2023-04-04T13:29:04.590Z,101822.25
2023-04-04T13:31:35.539Z,101824.84
2023-04-04T13:34:04.768Z,101819.47
2023-04-04T13:36:34.233Z,101811.34
2023-04-04T13:39:03.412Z,101814.72
2023-04-04T13:41:32.757Z,101812.69
2023-04-04T13:44:01.975Z,101819.50
2023-04-04T13:46:35.453Z,101822.78
2023-04-04T13:49:04.857Z,101833.84
2023-04-04T13:51:34.336Z,101819.88
2023-04-04T13:54:04.793Z,101825.22
2023-04-04T13:56:35.809Z,101819.06
2023-04-04T13:59:05.572Z,101824.25
2023-04-04T14:01:36.774Z,101811.19
2023-04-04T14:04:16.608Z,101825.97
2023-04-04T14:06:52.986Z,101820.25
2023-04-04T14:09:24.549Z,101816.31
2023-04-04T14:11:54.609Z,101814.63
2023-04-04T14:14:23.948Z,101809.47
2023-04-04T14:16:54.761Z,101815.53
2023-04-04T14:19:25.437Z,101815.53
2023-04-04T14:21:55.484Z,101820.16
2023-04-04T14:24:25.052Z,101814.38
2023-04-04T14:26:54.614Z,101815.63
2023-04-04T14:29:24.172Z,101808.34
2023-04-04T14:31:56.264Z,101812.56
2023-04-04T14:34:27.053Z,101810.00
2023-04-04T14:36:56.949Z,101812.34
2023-04-04T14:39:26.729Z,101804.00
2023-04-04T14:41:56.367Z,101809.28
2023-04-04T14:44:26.175Z,101806.13
2023-04-04T14:46:57.167Z,101819.09
2023-04-04T14:49:26.498Z,101821.63
2023-04-04T14:51:55.911Z,101814.91
2023-04-04T14:54:25.109Z,101819.53
2023-04-04T14:56:54.460Z,101816.75
2023-04-04T14:59:23.785Z,101814.78
2023-04-04T15:01:53.275Z,101814.97
2023-04-04T15:04:23.888Z,101811.13
2023-04-04T15:06:53.659Z,101806.69
2023-04-04T15:09:23.304Z,101812.63
2023-04-04T15:11:52.682Z,101817.25
2023-04-04T15:14:21.837Z,101816.56
2023-04-04T15:16:51.106Z,101820.75
2023-04-04T15:19:20.603Z,101821.56
2023-04-04T15:21:51.410Z,101812.25
2023-04-04T15:24:20.596Z,101818.97
2023-04-04T15:26:50.839Z,101821.06
2023-04-04T15:29:20.385Z,101813.56
2023-04-04T15:31:50.544Z,101812.41
2023-04-04T15:34:19.778Z,101804.63
2023-04-04T15:36:52.099Z,101814.25
2023-04-04T15:39:21.590Z,101816.72
2023-04-04T15:41:51.040Z,101817.78
2023-04-04T15:44:20.201Z,101808.78
2023-04-04T15:46:49.288Z,101801.66
2023-04-04T15:49:18.478Z,101807.66
2023-04-04T15:51:47.731Z,101816.16
2023-04-04T15:54:18.494Z,101807.38
2023-04-04T15:56:48.151Z,101814.09
2023-04-04T15:59:16.966Z,101810.38
2023-04-04T16:01:47.043Z,101810.44
2023-04-04T16:04:16.149Z,101821.66
2023-04-04T16:06:45.349Z,101817.34
2023-04-04T16:09:14.611Z,101807.44
2023-04-04T16:11:45.327Z,101812.13
2023-04-04T16:14:14.552Z,101807.00
2023-04-04T16:16:43.691Z,101817.47
2023-04-04T16:19:14.277Z,101817.47
2023-04-04T16:21:44.032Z,101815.38
2023-04-04T16:24:14.274Z,101819.88
2023-04-04T16:26:47.494Z,101810.72
2023-04-04T16:29:18.574Z,101820.03
2023-04-04T16:31:48.552Z,101819.47
2023-04-04T16:34:19.300Z,101815.41
2023-04-04T16:36:48.809Z,101821.47
2023-04-04T16:39:19.361Z,101822.13
2023-04-04T16:41:50.168Z,101818.28
2023-04-04T16:44:19.580Z,101816.41
2023-04-04T16:46:48.940Z,101824.88
2023-04-04T16:49:18.187Z,101824.03
2023-04-04T16:51:47.533Z,101819.09
2023-04-04T16:54:16.714Z,101814.53
2023-04-04T16:56:46.118Z,101807.56
2023-04-04T16:59:17.478Z,101819.13
2023-04-04T17:01:49.177Z,101814.88
2023-04-04T17:04:18.485Z,101820.38
2023-04-04T17:06:48.887Z,101811.03
2023-04-04T17:09:18.285Z,101809.91
2023-04-04T17:11:47.627Z,101807.72
2023-04-04T17:14:18.359Z,101807.09
2023-04-04T17:16:48.136Z,101806.59
2023-04-04T17:19:17.570Z,101814.94
2023-04-04T17:21:47.676Z,101800.19
2023-04-04T17:24:16.950Z,101812.81
2023-04-04T17:26:48.103Z,101808.66
2023-04-04T17:29:20.729Z,101812.41
2023-04-04T17:31:50.392Z,101810.72
2023-04-04T17:34:20.169Z,101808.31
2023-04-04T17:36:49.616Z,101810.19
2023-04-04T17:39:18.865Z,101801.41
2023-04-04T17:41:48.806Z,101806.81
2023-04-04T17:44:20.744Z,101808.66
2023-04-04T17:46:50.679Z,101810.53
2023-04-04T17:49:20.657Z,101811.44
2023-04-04T17:51:51.139Z,101813.25
2023-04-04T17:54:20.837Z,101809.75
2023-04-04T17:56:50.569Z,101798.28
2023-04-04T17:59:21.235Z,101790.38
2023-04-04T18:01:52.115Z,101800.97
2023-04-04T18:04:22.328Z,101797.44
2023-04-04T18:06:52.430Z,101804.50
2023-04-04T18:09:24.084Z,101807.16
2023-04-04T18:11:53.850Z,101804.47
2023-04-04T18:14:24.906Z,101797.41
2023-04-04T18:16:54.697Z,101800.03
2023-04-04T18:19:23.796Z,101798.25
2023-04-04T18:21:59.654Z,101799.97
2023-04-04T18:24:29.282Z,101801.66
2023-04-04T18:26:58.865Z,101798.97
2023-04-04T18:29:30.976Z,101798.94
2023-04-04T18:32:02.790Z,101796.25
2023-04-04T18:34:32.098Z,101795.31
2023-04-04T18:37:01.904Z,101800.56
2023-04-04T18:39:31.980Z,101798.75
2023-04-04T18:42:03.155Z,101806.66
2023-04-04T18:44:34.458Z,101808.34
2023-04-04T18:47:05.310Z,101802.97
2023-04-04T18:49:34.957Z,101801.09
2023-04-04T18:52:04.317Z,101802.78
2023-04-04T18:54:33.524Z,101790.41
2023-04-04T18:57:03.271Z,101795.66
2023-04-04T18:59:34.105Z,101790.31
2023-04-04T19:02:05.869Z,101788.50
2023-04-04T19:04:40.788Z,101793.75
2023-04-04T19:07:18.361Z,101794.56
2023-04-04T19:09:49.878Z,101791.88
2023-04-04T19:12:19.456Z,101783.06
2023-04-04T19:14:50.089Z,101783.00
2023-04-04T19:17:19.817Z,101789.09
2023-04-04T19:19:49.078Z,101782.91
2023-04-04T19:22:18.775Z,101789.06
2023-04-04T19:24:48.045Z,101785.50
2023-04-04T19:27:17.553Z,101785.44
2023-04-04T19:29:46.727Z,101775.81
2023-04-04T19:32:19.850Z,101777.44
2023-04-04T19:34:50.719Z,101775.66
2023-04-04T19:37:20.339Z,101781.78
2023-04-04T19:39:50.176Z,101782.72
2023-04-04T19:42:26.653Z,101772.91
2023-04-04T19:44:57.156Z,101782.56
2023-04-04T19:47:28.184Z,101773.75
2023-04-04T19:49:58.411Z,101772.91
2023-04-04T19:52:27.894Z,101784.41
2023-04-04T19:54:57.085Z,101783.41
2023-04-04T19:57:27.445Z,101769.31
2023-04-04T20:00:05.025Z,101777.16
2023-04-04T20:02:52.947Z,101780.69
2023-04-04T20:05:54.744Z,101775.41
2023-04-04T20:08:24.244Z,101771.91
2023-04-04T20:10:58.167Z,101768.41
2023-04-04T20:13:27.932Z,101765.75
2023-04-04T20:16:03.936Z,101764.00
2023-04-04T20:18:36.850Z,101774.53
2023-04-04T20:21:10.461Z,101770.22
2023-04-04T20:23:48.306Z,101771.03
2023-04-04T20:26:44.216Z,101769.25
2023-04-04T20:29:17.439Z,101778.00
2023-04-04T20:31:49.156Z,101776.22
2023-04-04T20:34:42.700Z,101770.13
2023-04-04T20:37:20.055Z,101771.91
2023-04-04T20:39:55.581Z,101772.78
2023-04-04T20:42:40.432Z,101764.88
2023-04-04T20:45:47.233Z,101770.22
2023-04-04T20:48:36.505Z,101767.50
2023-04-04T20:51:24.017Z,101768.34
2023-04-04T20:53:56.539Z,101766.56
2023-04-04T20:56:55.550Z,101770.03
2023-04-04T20:59:38.389Z,101766.63
2023-04-04T21:02:19.985Z,101768.34
2023-04-04T21:04:51.868Z,101763.91
2023-04-04T21:07:42.514Z,101764.00
2023-04-04T21:10:23.995Z,101768.28
2023-04-04T21:12:53.920Z,101754.16
2023-04-04T21:15:28.648Z,101765.59
2023-04-04T21:18:01.806Z,101761.22
2023-04-04T21:21:16.712Z,101754.13
2023-04-04T21:23:52.748Z,101755.88
2023-04-04T21:26:33.931Z,101748.88
2023-04-04T21:29:06.223Z,101751.50
2023-04-04T21:31:40.681Z,101749.84
2023-04-04T21:34:12.807Z,101750.72
2023-04-04T21:36:42.933Z,101743.59
2023-04-04T21:39:15.712Z,101747.13
2023-04-04T21:41:46.020Z,101748.88
2023-04-04T21:44:15.652Z,101749.00
2023-04-04T21:46:44.868Z,101747.19
2023-04-04T21:49:16.647Z,101756.91
2023-04-04T21:51:45.985Z,101748.00
2023-04-04T21:54:16.796Z,101752.34
2023-04-04T21:56:47.456Z,101750.63
2023-04-04T21:59:17.014Z,101747.97
2023-04-04T22:01:46.153Z,101750.59
2023-04-04T22:04:16.086Z,101748.81
2023-04-04T22:06:45.354Z,101751.44
2023-04-04T22:09:16.563Z,101750.59
2023-04-04T22:11:45.775Z,101750.56
2023-04-04T22:14:17.818Z,101745.28
2023-04-04T22:16:47.525Z,101747.91
2023-04-04T22:19:16.953Z,101748.81
2023-04-04T22:21:48.422Z,101748.75
2023-04-04T22:24:21.358Z,101745.34
2023-04-04T22:26:50.573Z,101741.75
2023-04-04T22:29:20.022Z,101740.00
2023-04-04T22:31:49.232Z,101744.56
2023-04-04T22:34:18.731Z,101741.91
2023-04-04T22:36:48.065Z,101731.31
2023-04-04T22:39:20.706Z,101730.47
2023-04-04T22:41:50.046Z,101735.63
2023-04-04T22:44:19.424Z,101727.59
2023-04-04T22:46:48.565Z,101734.69
2023-04-04T22:49:17.918Z,101728.56
2023-04-04T22:51:47.873Z,101729.47
2023-04-04T22:54:19.075Z,101732.88
2023-04-04T22:56:48.165Z,101724.19
2023-04-04T22:59:17.558Z,101724.25
2023-04-04T23:01:46.875Z,101719.81
2023-04-04T23:04:16.737Z,101722.41
2023-04-04T23:06:46.625Z,101718.91
2023-04-04T23:09:16.309Z,101709.28
2023-04-04T23:11:46.992Z,101718.03
2023-04-04T23:14:19.534Z,101713.69
2023-04-04T23:16:48.972Z,101718.00
2023-04-04T23:19:18.420Z,101710.03
2023-04-04T23:21:47.684Z,101710.03
2023-04-04T23:24:17.132Z,101709.09
2023-04-04T23:26:47.747Z,101707.41
2023-04-04T23:29:17.374Z,101707.53
2023-04-04T23:31:46.775Z,101696.09
2023-04-04T23:34:16.133Z,101697.81
2023-04-04T23:36:45.378Z,101695.19
2023-04-04T23:39:15.916Z,101689.03
2023-04-04T23:41:46.843Z,101687.16
2023-04-04T23:44:17.606Z,101676.63
2023-04-04T23:46:47.557Z,101686.25
2023-04-04T23:49:17.931Z,101687.16
2023-04-04T23:51:47.268Z,101683.63
2023-04-04T23:54:19.024Z,101687.03
2023-04-04T23:56:49.537Z,101684.34
2023-04-04T23:59:18.962Z,101681.72
